Time;durP1;ratioP1;P1;durP2;ratioP2;P2;SDS_P1;SDS_P2;PMS_P1;PMS_P2;Temp;Humidity;BMP_temperature;BMP_pressure;BME280_temperature;BME280_humidity;BME280_pressure;Samples;Min_cycle;Max_cycle;Signal;HPM_P1;HPM_P2
2023/12/25 00:00:13;;;;;;;0.22;0.22;;;11.30;99.90;;;;;;4965667;28;20047;-68
2023/12/25 00:02:38;;;;;;;2.17;1.17;;;11.30;99.90;;;;;;4960434;28;20046;-68
2023/12/25 00:05:04;;;;;;;0.10;0.10;;;11.30;99.90;;;;;;4968188;28;20046;-68
2023/12/25 00:07:30;;;;;;;1.17;0.70;;;11.40;99.90;;;;;;4960010;28;20051;-68
2023/12/25 00:09:56;;;;;;;0.95;0.95;;;11.30;99.90;;;;;;4965280;28;20046;-68
2023/12/25 00:12:23;;;;;;;22.25;2.22;;;11.40;99.90;;;;;;4974014;28;20058;-68
2023/12/25 00:14:49;;;;;;;1.17;1.08;;;11.30;99.90;;;;;;4964201;28;20061;-68
2023/12/25 00:17:15;;;;;;;0.40;0.40;;;11.30;99.90;;;;;;4965723;28;20047;-68
2023/12/25 00:19:41;;;;;;;0.82;0.82;;;11.30;99.90;;;;;;4967761;28;20170;-68
2023/12/25 00:22:07;;;;;;;0.43;0.43;;;11.30;99.90;;;;;;4972891;28;20046;-68
2023/12/25 00:24:32;;;;;;;4.15;2.42;;;11.30;99.90;;;;;;4958737;28;20038;-68
2023/12/25 00:26:58;;;;;;;2.53;1.23;;;11.30;99.90;;;;;;4969233;28;20038;-68
2023/12/25 00:29:24;;;;;;;0.10;0.10;;;11.30;99.90;;;;;;4963158;28;20060;-67
2023/12/25 00:31:49;;;;;;;0.55;0.55;;;11.30;99.90;;;;;;4967683;28;20047;-68
2023/12/25 00:34:15;;;;;;;0.43;0.43;;;11.30;99.90;;;;;;4967866;28;20102;-68
2023/12/25 00:36:40;;;;;;;0.00;0.00;;;11.30;99.90;;;;;;4971044;28;20039;-68
2023/12/25 00:39:06;;;;;;;1.85;1.42;;;11.30;99.90;;;;;;4974644;28;20463;-68
2023/12/25 00:41:32;;;;;;;0.10;0.10;;;11.20;99.90;;;;;;4964284;28;20057;-68
2023/12/25 00:43:58;;;;;;;0.08;0.08;;;11.20;99.90;;;;;;4964823;28;20074;-68
2023/12/25 00:46:24;;;;;;;0.10;0.10;;;11.10;99.90;;;;;;4969762;28;20085;-68
2023/12/25 00:48:49;;;;;;;0.10;0.10;;;11.10;99.90;;;;;;4973137;28;20038;-68
2023/12/25 00:51:15;;;;;;;0.10;0.10;;;11.10;99.90;;;;;;4963744;28;20796;-68
2023/12/25 00:53:41;;;;;;;0.10;0.10;;;11.00;99.90;;;;;;4962803;28;20041;-68
2023/12/25 00:56:08;;;;;;;2.38;1.00;;;10.90;99.90;;;;;;4968257;28;20561;-68
2023/12/25 00:58:34;;;;;;;1.55;1.00;;;10.90;99.90;;;;;;4967268;28;20410;-68
2023/12/25 01:00:59;;;;;;;1.70;1.52;;;11.00;99.90;;;;;;4967225;28;20054;-68
2023/12/25 01:03:25;;;;;;;0.10;0.10;;;10.90;99.90;;;;;;4964994;28;20134;-68
2023/12/25 01:05:50;;;;;;;0.10;0.10;;;11.00;99.90;;;;;;4969731;28;20104;-68
2023/12/25 01:08:16;;;;;;;0.45;0.45;;;10.90;99.90;;;;;;4968168;28;20038;-68
2023/12/25 01:10:42;;;;;;;0.45;0.45;;;10.90;99.90;;;;;;4960575;28;20394;-67
2023/12/25 01:13:07;;;;;;;0.00;0.00;;;10.80;99.90;;;;;;4968537;28;20130;-68
2023/12/25 01:15:33;;;;;;;0.10;0.10;;;10.80;99.90;;;;;;4964140;28;20154;-68
2023/12/25 01:17:58;;;;;;;0.40;0.40;;;10.80;99.90;;;;;;4960790;28;20058;-68
2023/12/25 01:20:24;;;;;;;0.10;0.10;;;10.80;99.90;;;;;;4962057;28;20500;-68
2023/12/25 01:22:50;;;;;;;1.38;1.10;;;10.90;99.90;;;;;;4970491;28;20427;-68
2023/12/25 01:25:15;;;;;;;0.10;0.10;;;10.80;99.90;;;;;;4962568;28;20070;-68
2023/12/25 01:27:41;;;;;;;0.20;0.20;;;10.80;99.90;;;;;;4961028;28;20120;-68
2023/12/25 01:30:11;;;;;;;0.10;0.10;;;10.80;99.90;;;;;;4968479;28;20058;-67
2023/12/25 01:32:37;;;;;;;0.80;0.80;;;10.80;99.90;;;;;;4966068;28;20042;-67
2023/12/25 01:35:04;;;;;;;0.65;0.57;;;10.80;99.90;;;;;;4961610;28;20491;-68
2023/12/25 01:37:29;;;;;;;0.47;0.47;;;10.80;99.90;;;;;;4962480;28;20086;-67
2023/12/25 01:39:55;;;;;;;0.47;0.47;;;10.80;99.90;;;;;;4968171;28;20482;-67
2023/12/25 01:42:21;;;;;;;0.10;0.10;;;10.80;99.90;;;;;;4955708;28;20077;-67
2023/12/25 01:44:47;;;;;;;0.10;0.10;;;10.80;99.90;;;;;;4960013;28;20410;-68
2023/12/25 01:47:14;;;;;;;0.10;0.10;;;10.80;99.90;;;;;;4965974;28;20042;-68
2023/12/25 01:49:40;;;;;;;0.28;0.28;;;10.80;99.90;;;;;;4968543;28;20375;-67
2023/12/25 01:52:06;;;;;;;0.10;0.10;;;10.80;99.90;;;;;;4957452;28;20054;-67
2023/12/25 01:54:33;;;;;;;0.98;0.95;;;10.80;99.90;;;;;;4963079;28;20034;-68
2023/12/25 01:56:59;;;;;;;0.10;0.10;;;10.80;99.90;;;;;;4960166;28;20047;-67
2023/12/25 01:59:29;;;;;;;4.57;2.60;;;10.80;99.90;;;;;;4962029;28;20181;-68
2023/12/25 02:01:57;;;;;;;0.80;0.80;;;10.80;99.90;;;;;;4966942;28;20209;-67
2023/12/25 02:04:23;;;;;;;0.00;0.00;;;10.80;99.90;;;;;;4964512;28;20134;-67
2023/12/25 02:06:50;;;;;;;0.20;0.20;;;10.90;99.90;;;;;;4964920;28;20046;-67
2023/12/25 02:09:16;;;;;;;0.10;0.10;;;10.80;99.90;;;;;;4967696;28;20490;-68
2023/12/25 02:11:42;;;;;;;0.10;0.10;;;10.80;99.90;;;;;;4973245;28;20109;-68
2023/12/25 02:14:08;;;;;;;0.65;0.63;;;10.70;99.90;;;;;;4964296;28;20055;-68
2023/12/25 02:16:36;;;;;;;0.55;0.55;;;10.70;99.90;;;;;;4970893;28;20067;-68
2023/12/25 02:19:04;;;;;;;0.13;0.13;;;10.70;99.90;;;;;;4965636;28;20039;-67
2023/12/25 02:21:30;;;;;;;0.10;0.10;;;10.60;99.90;;;;;;4972695;28;20049;-68
2023/12/25 02:24:00;;;;;;;0.08;0.08;;;10.60;99.90;;;;;;4961356;28;20146;-67
2023/12/25 02:26:26;;;;;;;0.10;0.10;;;10.50;99.90;;;;;;4964038;28;20098;-67
2023/12/25 02:28:51;;;;;;;2.17;1.85;;;10.60;99.90;;;;;;4966392;28;20451;-67
2023/12/25 02:31:17;;;;;;;0.08;0.08;;;10.60;99.90;;;;;;4965574;28;20039;-67
2023/12/25 02:33:43;;;;;;;0.10;0.10;;;10.50;99.90;;;;;;4965821;28;20082;-68
2023/12/25 02:36:09;;;;;;;0.10;0.10;;;10.50;99.90;;;;;;4971419;28;20054;-68
2023/12/25 02:38:34;;;;;;;0.00;0.00;;;10.50;99.90;;;;;;4967360;28;20557;-67
2023/12/25 02:41:00;;;;;;;0.13;0.13;;;10.50;99.90;;;;;;4974296;28;20051;-67
2023/12/25 02:43:26;;;;;;;0.47;0.47;;;10.50;99.90;;;;;;4962663;28;20047;-67
2023/12/25 02:45:51;;;;;;;0.30;0.30;;;10.50;99.90;;;;;;4968513;28;20078;-67
2023/12/25 02:48:17;;;;;;;1.10;1.08;;;10.50;99.90;;;;;;4977000;28;20109;-68
2023/12/25 02:50:42;;;;;;;0.00;0.00;;;10.50;99.90;;;;;;4968381;28;20050;-67
2023/12/25 02:53:08;;;;;;;0.20;0.20;;;10.50;99.90;;;;;;4966799;28;20058;-67
2023/12/25 02:55:33;;;;;;;0.50;0.50;;;10.50;99.90;;;;;;4971490;28;20051;-68
2023/12/25 02:57:59;;;;;;;0.10;0.10;;;10.50;99.90;;;;;;4967385;28;20070;-68
2023/12/25 03:00:24;;;;;;;1.23;0.55;;;10.50;99.90;;;;;;4966146;28;20478;-67
2023/12/25 03:02:50;;;;;;;0.00;0.00;;;10.50;99.90;;;;;;4972033;28;20383;-68
2023/12/25 03:05:16;;;;;;;0.10;0.10;;;10.50;99.90;;;;;;4973514;28;20047;-67
2023/12/25 03:07:41;;;;;;;1.65;1.55;;;10.60;99.90;;;;;;4964335;28;20051;-68
2023/12/25 03:10:07;;;;;;;0.10;0.10;;;10.50;99.90;;;;;;4974044;28;20418;-67
2023/12/25 03:12:33;;;;;;;0.30;0.30;;;10.50;99.90;;;;;;4973922;28;20047;-67
2023/12/25 03:14:58;;;;;;;0.68;0.60;;;10.60;99.90;;;;;;4978059;28;20046;-67
2023/12/25 03:17:24;;;;;;;0.15;0.15;;;10.60;99.90;;;;;;4969413;28;20133;-67
2023/12/25 03:19:49;;;;;;;0.45;0.45;;;10.60;99.90;;;;;;4966084;28;20066;-67
2023/12/25 03:22:15;;;;;;;0.73;0.73;;;10.60;99.90;;;;;;4973178;28;20472;-67
2023/12/25 03:24:40;;;;;;;5.68;1.00;;;10.60;99.90;;;;;;4964980;28;20148;-68
2023/12/25 03:27:06;;;;;;;0.40;0.40;;;10.60;99.90;;;;;;4966463;28;20074;-67
2023/12/25 03:29:32;;;;;;;0.10;0.10;;;10.60;99.90;;;;;;4970514;28;20680;-68
2023/12/25 03:31:57;;;;;;;2.22;1.25;;;10.60;99.90;;;;;;4969407;28;20359;-67
2023/12/25 03:34:23;;;;;;;0.10;0.10;;;10.60;99.90;;;;;;4960424;28;20081;-67
2023/12/25 03:36:48;;;;;;;0.30;0.30;;;10.70;99.90;;;;;;4983144;28;20053;-68
2023/12/25 03:39:14;;;;;;;0.10;0.10;;;10.70;99.90;;;;;;4977231;28;20137;-67
2023/12/25 03:41:40;;;;;;;0.57;0.57;;;10.70;99.90;;;;;;4973954;28;20085;-67
2023/12/25 03:44:05;;;;;;;0.03;0.03;;;10.70;99.90;;;;;;4956056;28;20054;-67
2023/12/25 03:46:31;;;;;;;0.00;0.00;;;10.70;99.90;;;;;;4962812;28;20078;-67
2023/12/25 03:48:56;;;;;;;0.10;0.10;;;10.70;99.90;;;;;;4971426;28;20046;-67
2023/12/25 03:51:22;;;;;;;0.47;0.47;;;10.70;99.90;;;;;;4961088;28;20161;-68
2023/12/25 03:53:48;;;;;;;0.38;0.32;;;10.70;99.90;;;;;;4972473;28;20051;-67
2023/12/25 03:56:17;;;;;;;0.05;0.05;;;10.70;99.90;;;;;;4969434;28;20082;-67
2023/12/25 03:58:43;;;;;;;0.45;0.45;;;10.60;99.90;;;;;;4961184;28;20047;-67
2023/12/25 04:01:09;;;;;;;0.25;0.25;;;10.60;99.90;;;;;;4972043;28;20198;-67
2023/12/25 04:03:35;;;;;;;0.10;0.10;;;10.60;99.90;;;;;;4966688;28;20513;-67
2023/12/25 04:06:00;;;;;;;0.00;0.00;;;10.60;99.90;;;;;;4962052;28;20051;-67
2023/12/25 04:08:26;;;;;;;0.45;0.45;;;10.50;99.90;;;;;;4954650;28;20031;-67
2023/12/25 04:10:51;;;;;;;0.05;0.05;;;10.50;99.90;;;;;;4968950;28;20479;-67
2023/12/25 04:13:17;;;;;;;0.10;0.10;;;10.60;99.90;;;;;;4955207;28;20039;-68
2023/12/25 04:15:42;;;;;;;1.27;0.57;;;10.50;99.90;;;;;;4964376;28;20063;-68
2023/12/25 04:18:08;;;;;;;0.38;0.30;;;10.60;99.90;;;;;;4960686;28;20045;-67
2023/12/25 04:20:33;;;;;;;0.10;0.10;;;10.50;99.90;;;;;;4964861;28;20070;-67
2023/12/25 04:22:59;;;;;;;2.20;0.70;;;10.60;99.90;;;;;;4965897;28;20055;-67
2023/12/25 04:25:25;;;;;;;14.68;0.95;;;10.60;99.90;;;;;;4957004;28;20043;-67
2023/12/25 04:27:51;;;;;;;0.10;0.10;;;10.60;99.90;;;;;;4961847;28;20127;-67
2023/12/25 04:30:17;;;;;;;0.10;0.10;;;10.60;99.90;;;;;;4967489;28;20070;-67
2023/12/25 04:32:43;;;;;;;6.13;3.50;;;10.60;99.90;;;;;;4973865;28;20046;-68
2023/12/25 04:35:08;;;;;;;0.10;0.10;;;10.60;99.90;;;;;;4958128;28;20130;-67
2023/12/25 04:37:34;;;;;;;0.10;0.10;;;10.60;99.90;;;;;;4935294;28;1041148;-68
2023/12/25 04:39:59;;;;;;;5.80;0.93;;;10.70;99.90;;;;;;4970658;28;20046;-67
2023/12/25 04:42:25;;;;;;;1.00;1.00;;;10.70;99.90;;;;;;4974456;28;20090;-67
2023/12/25 04:44:50;;;;;;;0.10;0.10;;;10.70;99.90;;;;;;4971151;28;20733;-67
2023/12/25 04:47:16;;;;;;;2.10;1.08;;;10.70;99.90;;;;;;4968485;28;20054;-67
2023/12/25 04:49:42;;;;;;;0.00;0.00;;;10.70;99.90;;;;;;4959981;28;20050;-67
2023/12/25 04:52:07;;;;;;;0.90;0.88;;;10.70;99.90;;;;;;4967549;28;20046;-67
2023/12/25 04:54:33;;;;;;;0.30;0.30;;;10.70;99.90;;;;;;4962308;28;20453;-67
2023/12/25 04:56:58;;;;;;;0.20;0.20;;;10.70;99.90;;;;;;4968706;28;20047;-67
2023/12/25 04:59:24;;;;;;;0.20;0.20;;;10.70;99.90;;;;;;4968993;28;20039;-67
2023/12/25 05:01:50;;;;;;;0.40;0.40;;;10.70;99.90;;;;;;4967185;28;20050;-67
2023/12/25 05:04:16;;;;;;;0.65;0.63;;;10.70;99.90;;;;;;4964746;28;20133;-67
2023/12/25 05:06:41;;;;;;;0.10;0.10;;;10.70;99.90;;;;;;4968987;28;20394;-67
2023/12/25 05:09:08;;;;;;;0.63;0.45;;;10.70;99.90;;;;;;4965473;28;20502;-67
2023/12/25 05:11:34;;;;;;;0.20;0.20;;;10.70;99.90;;;;;;4966095;28;20047;-67
2023/12/25 05:14:00;;;;;;;0.43;0.43;;;10.60;99.90;;;;;;4960473;28;20054;-67
2023/12/25 05:16:25;;;;;;;0.00;0.00;;;10.60;99.90;;;;;;4957474;28;20111;-68
2023/12/25 05:18:51;;;;;;;0.43;0.43;;;10.60;99.90;;;;;;4966676;28;20071;-67
2023/12/25 05:21:17;;;;;;;1.13;1.13;;;10.50;99.90;;;;;;4971431;28;20048;-67
2023/12/25 05:23:42;;;;;;;0.80;0.80;;;10.50;99.90;;;;;;4960420;28;20043;-67
2023/12/25 05:26:10;;;;;;;0.10;0.10;;;10.50;99.90;;;;;;4961926;28;20479;-67
2023/12/25 05:28:36;;;;;;;0.10;0.10;;;10.50;99.90;;;;;;4963604;28;20042;-67
2023/12/25 05:31:01;;;;;;;0.40;0.40;;;10.40;99.90;;;;;;4970760;28;20042;-67
2023/12/25 05:33:27;;;;;;;0.03;0.03;;;10.40;99.90;;;;;;4965583;28;20071;-67
2023/12/25 05:35:53;;;;;;;2.40;1.25;;;10.40;99.90;;;;;;4960191;28;20605;-67
2023/12/25 05:38:18;;;;;;;0.63;0.63;;;10.40;99.90;;;;;;4966209;28;20398;-67
2023/12/25 05:40:44;;;;;;;0.13;0.13;;;10.40;99.90;;;;;;4956061;28;20051;-67
2023/12/25 05:43:11;;;;;;;0.10;0.10;;;10.30;99.90;;;;;;4962702;28;20086;-67
2023/12/25 05:45:38;;;;;;;0.43;0.43;;;10.30;99.90;;;;;;4960781;28;20050;-67
2023/12/25 05:48:04;;;;;;;0.10;0.10;;;10.30;99.90;;;;;;4965471;28;20057;-67
2023/12/25 05:50:29;;;;;;;0.20;0.20;;;10.30;99.90;;;;;;4956790;28;20042;-67
2023/12/25 05:52:55;;;;;;;0.10;0.10;;;10.30;99.90;;;;;;4963953;28;20101;-67
2023/12/25 05:55:21;;;;;;;0.10;0.10;;;10.20;99.90;;;;;;4965004;28;20035;-67
2023/12/25 05:57:47;;;;;;;0.10;0.10;;;10.20;99.90;;;;;;4962028;28;20525;-67
2023/12/25 06:00:13;;;;;;;0.10;0.10;;;10.30;99.90;;;;;;4960268;28;20391;-68
2023/12/25 06:02:38;;;;;;;0.10;0.10;;;10.30;99.90;;;;;;4956775;28;20042;-67
2023/12/25 06:05:05;;;;;;;0.08;0.08;;;10.30;99.90;;;;;;4964171;28;20046;-67
2023/12/25 06:07:30;;;;;;;0.00;0.00;;;10.30;99.90;;;;;;4969548;28;20051;-67
2023/12/25 06:09:56;;;;;;;6.65;3.63;;;10.30;99.90;;;;;;4963831;28;20126;-67
2023/12/25 06:12:21;;;;;;;0.13;0.13;;;10.40;99.90;;;;;;4971938;28;20070;-67
2023/12/25 06:14:47;;;;;;;0.50;0.50;;;10.30;99.90;;;;;;4963345;28;20051;-67
2023/12/25 06:17:12;;;;;;;0.30;0.30;;;10.40;99.90;;;;;;4968200;28;20047;-67
2023/12/25 06:19:38;;;;;;;1.55;1.45;;;10.40;99.90;;;;;;4957618;28;20063;-67
2023/12/25 06:22:03;;;;;;;0.57;0.57;;;10.40;99.90;;;;;;4963640;28;20047;-67
2023/12/25 06:24:29;;;;;;;0.10;0.10;;;10.30;99.90;;;;;;4966958;28;20174;-67
2023/12/25 06:26:54;;;;;;;0.43;0.40;;;10.30;99.90;;;;;;4968629;28;20047;-67
2023/12/25 06:29:20;;;;;;;0.10;0.10;;;10.40;99.90;;;;;;4969909;28;20185;-67
2023/12/25 06:31:49;;;;;;;0.10;0.10;;;10.30;99.90;;;;;;4957527;28;20137;-67
2023/12/25 06:34:14;;;;;;;0.10;0.10;;;10.30;99.90;;;;;;4964956;28;20039;-67
2023/12/25 06:36:40;;;;;;;0.00;0.00;;;10.20;99.90;;;;;;4957996;28;20054;-67
2023/12/25 06:39:06;;;;;;;0.10;0.10;;;10.20;99.90;;;;;;4968549;28;20054;-67
2023/12/25 06:41:31;;;;;;;0.00;0.00;;;10.20;99.90;;;;;;4972254;28;20465;-67
2023/12/25 06:43:57;;;;;;;0.10;0.10;;;10.30;99.90;;;;;;4969601;28;20058;-67
2023/12/25 06:46:22;;;;;;;0.63;0.63;;;10.20;99.90;;;;;;4958184;28;20402;-67
2023/12/25 06:48:48;;;;;;;0.10;0.10;;;10.20;99.90;;;;;;4962039;28;20047;-67
2023/12/25 06:51:13;;;;;;;0.20;0.20;;;10.20;99.90;;;;;;4973618;28;20132;-67
2023/12/25 06:53:39;;;;;;;0.10;0.10;;;10.20;99.90;;;;;;4966129;28;20045;-67
2023/12/25 06:56:07;;;;;;;1.08;1.00;;;10.20;99.90;;;;;;4966710;28;20486;-67
2023/12/25 06:58:33;;;;;;;0.05;0.05;;;10.20;99.90;;;;;;4961586;28;20084;-67
2023/12/25 07:01:00;;;;;;;0.47;0.47;;;10.10;99.90;;;;;;4968712;28;20353;-67
2023/12/25 07:03:25;;;;;;;0.80;0.80;;;10.20;99.90;;;;;;4960169;28;20067;-67
2023/12/25 07:05:51;;;;;;;0.00;0.00;;;10.20;99.90;;;;;;4963246;28;20052;-67
2023/12/25 07:08:17;;;;;;;1.20;0.60;;;10.20;99.90;;;;;;4965990;28;20057;-67
2023/12/25 07:10:46;;;;;;;0.05;0.05;;;10.10;99.90;;;;;;4969865;28;20039;-67
2023/12/25 07:13:11;;;;;;;0.00;0.00;;;10.20;99.90;;;;;;4954513;28;20058;-67
2023/12/25 07:15:38;;;;;;;0.10;0.10;;;10.10;99.90;;;;;;4963895;28;20386;-67
2023/12/25 07:18:05;;;;;;;0.47;0.47;;;10.10;99.90;;;;;;4962667;28;20115;-67
2023/12/25 07:20:31;;;;;;;0.10;0.10;;;10.10;99.90;;;;;;4963501;28;20043;-67
2023/12/25 07:22:56;;;;;;;0.10;0.10;;;10.10;99.90;;;;;;4962720;28;20057;-67
2023/12/25 07:25:22;;;;;;;0.10;0.10;;;10.00;99.90;;;;;;4965628;28;20062;-67
2023/12/25 07:27:48;;;;;;;0.10;0.10;;;10.00;99.90;;;;;;4963409;28;20039;-67
2023/12/25 07:30:13;;;;;;;0.00;0.00;;;10.00;99.90;;;;;;4960706;28;20034;-67
2023/12/25 07:32:40;;;;;;;0.20;0.20;;;10.00;99.90;;;;;;4955395;28;20094;-67
2023/12/25 07:35:06;;;;;;;0.90;0.88;;;10.00;99.90;;;;;;4967642;28;20126;-67
2023/12/25 07:37:32;;;;;;;0.50;0.50;;;10.00;99.90;;;;;;4969054;28;20122;-67
2023/12/25 07:39:58;;;;;;;0.65;0.57;;;10.00;99.90;;;;;;4969109;28;20044;-67
2023/12/25 07:42:23;;;;;;;0.00;0.00;;;10.00;99.90;;;;;;4963157;28;20127;-67
2023/12/25 07:44:49;;;;;;;0.10;0.10;;;10.10;99.90;;;;;;4962379;28;20114;-67
2023/12/25 07:47:14;;;;;;;0.10;0.10;;;10.10;99.90;;;;;;4977231;28;20043;-67
2023/12/25 07:49:40;;;;;;;0.10;0.10;;;10.10;99.90;;;;;;4972309;28;20051;-68
2023/12/25 07:52:05;;;;;;;0.10;0.10;;;10.10;99.90;;;;;;4962578;28;20043;-68
2023/12/25 07:54:31;;;;;;;0.63;0.63;;;10.00;99.90;;;;;;4973206;28;20045;-68
2023/12/25 07:56:56;;;;;;;0.00;0.00;;;10.00;99.90;;;;;;4969225;28;20070;-67
2023/12/25 07:59:22;;;;;;;0.00;0.00;;;9.90;99.90;;;;;;4963377;28;20040;-67
2023/12/25 08:01:48;;;;;;;0.10;0.10;;;9.80;99.90;;;;;;4959868;28;20467;-68
2023/12/25 08:04:13;;;;;;;0.00;0.00;;;9.80;99.90;;;;;;4964934;28;20053;-68
2023/12/25 08:06:39;;;;;;;0.10;0.10;;;9.70;99.90;;;;;;4971290;28;20694;-68
2023/12/25 08:09:04;;;;;;;0.00;0.00;;;9.70;99.90;;;;;;4961758;28;20051;-67
2023/12/25 08:11:30;;;;;;;0.05;0.05;;;9.70;99.90;;;;;;4962879;28;20055;-68
2023/12/25 08:13:56;;;;;;;0.10;0.10;;;9.60;99.90;;;;;;4975890;28;20078;-68
2023/12/25 08:16:22;;;;;;;0.73;0.73;;;9.60;99.90;;;;;;4965587;28;20393;-67
2023/12/25 08:18:47;;;;;;;0.10;0.10;;;9.60;99.90;;;;;;4956280;28;20047;-67
2023/12/25 08:21:13;;;;;;;0.10;0.10;;;9.60;99.90;;;;;;4967542;28;20126;-68
2023/12/25 08:23:41;;;;;;;0.10;0.10;;;9.60;99.90;;;;;;4979387;28;20493;-68
2023/12/25 08:26:07;;;;;;;0.50;0.50;;;9.50;99.90;;;;;;4959080;28;20051;-68
2023/12/25 08:28:33;;;;;;;0.00;0.00;;;9.60;99.90;;;;;;4961144;28;20092;-68
2023/12/25 08:30:59;;;;;;;0.10;0.10;;;9.50;99.90;;;;;;4959504;28;20063;-68
2023/12/25 08:33:25;;;;;;;0.00;0.00;;;9.50;99.90;;;;;;4972383;28;20460;-68
2023/12/25 08:35:52;;;;;;;0.10;0.10;;;9.50;99.90;;;;;;4966774;28;20137;-68
2023/12/25 08:38:18;;;;;;;0.20;0.20;;;9.50;99.90;;;;;;4974842;28;20610;-68
2023/12/25 08:40:43;;;;;;;0.00;0.00;;;9.50;99.90;;;;;;4958154;28;20075;-68
2023/12/25 08:43:09;;;;;;;0.10;0.10;;;9.40;99.90;;;;;;4983876;28;20101;-68
2023/12/25 08:45:34;;;;;;;0.00;0.00;;;9.50;99.90;;;;;;4969878;28;20522;-68
2023/12/25 08:48:00;;;;;;;0.40;0.40;;;9.40;99.90;;;;;;4968425;28;20406;-68
2023/12/25 08:50:25;;;;;;;0.20;0.20;;;9.40;99.90;;;;;;4969444;28;20129;-68
2023/12/25 08:52:51;;;;;;;0.00;0.00;;;9.40;99.90;;;;;;4969822;28;20054;-68
2023/12/25 08:55:16;;;;;;;0.00;0.00;;;9.50;99.90;;;;;;4964264;28;20047;-68
2023/12/25 08:57:42;;;;;;;0.63;0.63;;;9.40;99.90;;;;;;4967516;28;20043;-68
2023/12/25 09:00:10;;;;;;;0.30;0.30;;;9.40;99.90;;;;;;4962104;28;20043;-68
2023/12/25 09:02:36;;;;;;;0.00;0.00;;;9.50;99.90;;;;;;4984156;28;20042;-68
2023/12/25 09:05:02;;;;;;;0.10;0.10;;;9.50;99.90;;;;;;4970734;28;20030;-68
2023/12/25 09:07:27;;;;;;;0.10;0.10;;;9.50;99.90;;;;;;4968660;28;20065;-68
2023/12/25 09:09:53;;;;;;;0.20;0.20;;;9.50;99.90;;;;;;4963949;28;20553;-68
2023/12/25 09:12:19;;;;;;;0.10;0.10;;;9.50;99.90;;;;;;4976343;28;20035;-68
2023/12/25 09:14:45;;;;;;;0.00;0.00;;;9.50;99.90;;;;;;4959574;28;20055;-68
2023/12/25 09:17:11;;;;;;;0.10;0.10;;;9.50;99.90;;;;;;4957048;28;20509;-68
2023/12/25 09:19:36;;;;;;;0.00;0.00;;;9.60;99.90;;;;;;4965068;28;20070;-68
2023/12/25 09:22:03;;;;;;;0.50;0.50;;;9.60;99.90;;;;;;4956769;28;20498;-68
2023/12/25 09:24:28;;;;;;;0.10;0.10;;;9.60;99.90;;;;;;4954105;28;20054;-67
2023/12/25 09:26:54;;;;;;;0.10;0.10;;;9.60;99.90;;;;;;4976092;28;20050;-68
2023/12/25 09:29:20;;;;;;;0.10;0.10;;;9.70;99.90;;;;;;4970877;28;20043;-67
2023/12/25 09:31:45;;;;;;;0.10;0.10;;;9.70;99.90;;;;;;4967522;28;20066;-67
2023/12/25 09:34:11;;;;;;;0.80;0.75;;;9.80;99.90;;;;;;4956768;28;20058;-67
2023/12/25 09:36:36;;;;;;;0.10;0.10;;;9.80;99.90;;;;;;4966713;28;20061;-67
2023/12/25 09:39:03;;;;;;;0.10;0.10;;;9.70;99.90;;;;;;4969456;28;20058;-66
2023/12/25 09:41:32;;;;;;;7.32;0.80;;;9.80;99.90;;;;;;4974928;28;20062;-68
2023/12/25 09:44:00;;;;;;;0.15;0.15;;;9.80;99.90;;;;;;4961614;28;20631;-68
2023/12/25 09:46:27;;;;;;;1.42;1.33;;;9.80;99.90;;;;;;4967894;28;20067;-68
2023/12/25 09:48:54;;;;;;;0.08;0.08;;;9.80;99.90;;;;;;4969881;28;20050;-68
2023/12/25 09:51:22;;;;;;;0.00;0.00;;;9.80;99.90;;;;;;4970547;28;20075;-68
2023/12/25 09:53:47;;;;;;;0.50;0.50;;;9.80;99.90;;;;;;4956734;28;20062;-68
2023/12/25 09:56:16;;;;;;;0.10;0.10;;;9.90;99.90;;;;;;4960725;28;20039;-68
2023/12/25 09:58:44;;;;;;;0.10;0.10;;;9.90;99.90;;;;;;4969774;28;20046;-68
2023/12/25 10:01:12;;;;;;;0.08;0.08;;;9.90;99.90;;;;;;4968930;28;20093;-68
2023/12/25 10:03:43;;;;;;;0.28;0.22;;;9.90;99.90;;;;;;4957794;28;20483;-68
2023/12/25 10:06:09;;;;;;;0.10;0.10;;;9.90;99.90;;;;;;4964042;28;20043;-68
2023/12/25 10:08:36;;;;;;;0.10;0.10;;;9.90;99.90;;;;;;4954277;28;20058;-68
2023/12/25 10:11:04;;;;;;;0.43;0.43;;;9.90;99.90;;;;;;4957539;28;20051;-68
2023/12/25 10:13:29;;;;;;;0.10;0.10;;;9.90;99.90;;;;;;4974374;28;20046;-68
2023/12/25 10:15:55;;;;;;;0.00;0.00;;;10.00;99.90;;;;;;4959565;28;20066;-68
2023/12/25 10:18:22;;;;;;;0.00;0.00;;;10.00;99.90;;;;;;4967228;28;20039;-69
2023/12/25 10:20:56;;;;;;;1.83;1.67;;;10.00;99.90;;;;;;4957506;28;20383;-68
2023/12/25 10:23:34;;;;;;;0.10;0.10;;;10.10;99.90;;;;;;4976216;28;20661;-68
2023/12/25 10:26:04;;;;;;;0.00;0.00;;;10.10;99.90;;;;;;4964300;28;20058;-68
2023/12/25 10:28:36;;;;;;;0.10;0.10;;;10.10;99.90;;;;;;4962736;28;20070;-68
2023/12/25 10:31:06;;;;;;;0.55;0.55;;;10.10;99.90;;;;;;4963024;28;20057;-68
2023/12/25 10:33:34;;;;;;;0.20;0.20;;;10.20;99.90;;;;;;4997573;28;20129;-68
2023/12/25 10:36:05;;;;;;;0.43;0.43;;;10.20;99.90;;;;;;4959294;28;20039;-68
2023/12/25 10:38:33;;;;;;;1.45;0.98;;;10.20;99.90;;;;;;4965792;28;20051;-69
2023/12/25 10:41:15;;;;;;;0.10;0.10;;;10.20;99.90;;;;;;4962507;28;20376;-69
2023/12/25 10:43:42;;;;;;;0.03;0.03;;;10.30;99.90;;;;;;4962720;28;20054;-69
2023/12/25 10:46:08;;;;;;;18.30;1.95;;;10.30;99.90;;;;;;4955968;28;20051;-68
2023/12/25 10:48:34;;;;;;;0.10;0.10;;;10.30;99.90;;;;;;4961081;28;20039;-68
2023/12/25 10:51:02;;;;;;;0.22;0.22;;;10.40;99.90;;;;;;4965342;28;20065;-68
2023/12/25 10:53:27;;;;;;;0.10;0.10;;;10.30;99.90;;;;;;4965307;28;20054;-68
2023/12/25 10:55:54;;;;;;;0.00;0.00;;;10.40;99.90;;;;;;4962605;28;20078;-68
2023/12/25 10:58:20;;;;;;;0.30;0.30;;;10.40;99.90;;;;;;4960873;28;20043;-68
2023/12/25 11:00:56;;;;;;;19.75;1.20;;;10.40;99.90;;;;;;4968437;28;20541;-68
2023/12/25 11:03:22;;;;;;;0.10;0.10;;;10.30;99.90;;;;;;4971538;28;20454;-68
2023/12/25 11:05:48;;;;;;;0.15;0.15;;;10.30;99.90;;;;;;4958957;28;20143;-68
2023/12/25 11:08:17;;;;;;;0.10;0.10;;;10.30;99.90;;;;;;4959855;28;20670;-68
2023/12/25 11:10:43;;;;;;;0.30;0.30;;;10.30;99.90;;;;;;4971346;28;20042;-68
2023/12/25 11:13:09;;;;;;;0.05;0.05;;;10.30;99.90;;;;;;4974493;28;20483;-68
2023/12/25 11:15:35;;;;;;;0.10;0.10;;;10.30;99.90;;;;;;4957869;28;20058;-68
2023/12/25 11:18:01;;;;;;;0.35;0.35;;;10.30;99.90;;;;;;4966516;28;20121;-68
2023/12/25 11:20:29;;;;;;;0.10;0.10;;;10.30;99.90;;;;;;4971548;28;20047;-68
2023/12/25 11:22:56;;;;;;;0.10;0.10;;;10.30;99.90;;;;;;4969995;28;20043;-68
2023/12/25 11:25:21;;;;;;;0.10;0.10;;;10.30;99.90;;;;;;4961599;28;20036;-69
2023/12/25 11:27:55;;;;;;;2.83;1.92;;;10.30;99.90;;;;;;4962097;28;20038;-69
2023/12/25 11:30:23;;;;;;;0.08;0.08;;;10.30;99.90;;;;;;4968134;28;20092;-69
2023/12/25 11:32:50;;;;;;;0.10;0.10;;;10.30;99.90;;;;;;4965654;28;20058;-69
2023/12/25 11:35:28;;;;;;;0.10;0.10;;;10.30;99.90;;;;;;4964574;28;20381;-69
2023/12/25 11:38:24;;;;;;;0.30;0.30;;;10.30;99.90;;;;;;4966716;28;20474;-69
2023/12/25 11:40:50;;;;;;;0.10;0.10;;;10.30;99.90;;;;;;4966190;28;20062;-70
2023/12/25 11:43:18;;;;;;;0.20;0.20;;;10.30;99.90;;;;;;4973674;28;20113;-69
2023/12/25 11:45:44;;;;;;;5.40;1.33;;;10.30;99.90;;;;;;4960941;28;20054;-69
2023/12/25 11:48:12;;;;;;;0.88;0.70;;;10.30;99.90;;;;;;4968450;28;20405;-69
2023/12/25 11:50:41;;;;;;;0.20;0.20;;;10.30;99.90;;;;;;4971221;28;20051;-69
2023/12/25 11:53:07;;;;;;;1.25;1.17;;;10.20;99.90;;;;;;4960236;28;20059;-69
2023/12/25 11:55:32;;;;;;;0.20;0.20;;;10.20;99.90;;;;;;4957280;28;20053;-69
2023/12/25 11:57:58;;;;;;;2.35;0.73;;;10.30;99.90;;;;;;4962547;28;20545;-69
2023/12/25 12:00:26;;;;;;;0.65;0.63;;;10.20;99.90;;;;;;4969674;28;20046;-70
2023/12/25 12:02:52;;;;;;;0.10;0.10;;;10.20;99.90;;;;;;4960906;28;20053;-69
2023/12/25 12:05:19;;;;;;;0.10;0.10;;;10.20;99.90;;;;;;4968496;28;20049;-70
2023/12/25 12:07:45;;;;;;;0.10;0.10;;;10.20;99.90;;;;;;4964571;28;20080;-70
2023/12/25 12:10:13;;;;;;;0.10;0.10;;;10.20;99.90;;;;;;4969833;28;20124;-70
2023/12/25 12:12:40;;;;;;;2.20;1.75;;;10.20;99.90;;;;;;4968629;28;20043;-69
2023/12/25 12:15:06;;;;;;;1.65;0.90;;;10.20;99.90;;;;;;4956844;28;20132;-70
2023/12/25 12:17:34;;;;;;;0.08;0.08;;;10.30;99.90;;;;;;4967401;28;20054;-70
2023/12/25 12:20:00;;;;;;;0.10;0.10;;;10.30;99.90;;;;;;4968543;28;20059;-70
2023/12/25 12:22:26;;;;;;;0.00;0.00;;;10.30;99.90;;;;;;4961954;28;20043;-69
2023/12/25 12:24:52;;;;;;;0.10;0.10;;;10.30;99.90;;;;;;4967971;28;20059;-69
2023/12/25 12:27:21;;;;;;;0.30;0.30;;;10.30;99.90;;;;;;4962301;28;20509;-69
2023/12/25 12:29:50;;;;;;;0.00;0.00;;;10.30;99.90;;;;;;4960960;28;20086;-70
2023/12/25 12:32:17;;;;;;;3.50;2.20;;;10.20;99.90;;;;;;4959886;28;20051;-70
2023/12/25 12:34:43;;;;;;;0.10;0.10;;;10.20;99.90;;;;;;4956294;28;20043;-70
2023/12/25 12:37:09;;;;;;;0.38;0.38;;;10.20;99.90;;;;;;4966104;28;20734;-69
2023/12/25 12:39:36;;;;;;;0.57;0.52;;;10.20;99.90;;;;;;4986696;28;20090;-70
2023/12/25 12:42:10;;;;;;;0.35;0.35;;;10.20;99.90;;;;;;4970139;28;20046;-69